Time;durP1;ratioP1;P1;durP2;ratioP2;P2;SDS_P1;SDS_P2;PMS_P1;PMS_P2;Temp;Humidity;BMP_temperature;BMP_pressure;BME280_temperature;BME280_humidity;BME280_pressure;Samples;Min_cycle;Max_cycle;Signal;HPM_P1;HPM_P2
2021/09/17 01:23:31;;;;;;;;;;;;;;;;;;;;;
2021/09/17 04:06:33;;;;;;;4.63;4.23;;;24.00;55.30;;;;;;5869447;24;20401;-86
2021/09/17 05:46:38;;;;;;;3.03;2.73;;;24.30;56.70;;;;;;5810323;24;20962;-88
2021/09/17 06:19:54;;;;;;;3.47;2.80;;;24.40;56.70;;;;;;5807900;24;20500;-89
2021/09/17 06:22:39;;;;;;;13.53;4.40;;;24.40;56.80;;;;;;5806956;24;20915;-87
2021/09/17 06:25:26;;;;;;;4.43;3.10;;;24.40;56.70;;;;;;5810611;24;20387;-86
2021/09/17 06:28:44;;;;;;;3.23;2.93;;;24.40;56.70;;;;;;5837504;24;20447;-86
2021/09/17 06:31:38;;;;;;;3.30;2.90;;;24.50;56.70;;;;;;5924755;24;20388;-87
2021/09/17 06:40:44;;;;;;;;;;;;;;;;;;;;;
2021/09/17 06:43:39;;;;;;;;;;;;;;;;;;;;;
2021/09/17 06:46:41;;;;;;;3.93;3.53;;;24.50;56.70;;;;;;6148469;23;20377;-86
2021/09/17 06:49:46;;;;;;;4.30;3.90;;;24.50;56.50;;;;;;6229860;23;20388;-86
2021/09/17 06:55:34;;;;;;;3.70;3.40;;;24.50;56.30;;;;;;6137907;23;20376;-88
2021/09/17 07:01:28;;;;;;;3.30;3.00;;;24.50;56.30;;;;;;6136903;23;20384;-88
2021/09/17 07:04:31;;;;;;;5.67;3.43;;;24.50;56.30;;;;;;6111799;23;20384;-88
2021/09/17 07:07:32;;;;;;;3.80;3.50;;;24.50;56.40;;;;;;6135517;23;20385;-87
2021/09/17 07:10:04;;;;;;;3.83;3.53;;;24.50;56.40;;;;;;6135886;23;20400;-87
2021/09/17 07:12:38;;;;;;;4.23;3.83;;;24.50;56.40;;;;;;6136528;23;20443;-87
2021/09/17 07:15:20;;;;;;;;;;;;;;;;;;;;;
2021/09/17 07:21:06;;;;;;;6.40;3.50;;;24.60;56.40;;;;;;6139412;23;20393;-88
2021/09/17 07:27:25;;;;;;;3.40;3.10;;;24.60;56.40;;;;;;6293676;22;20352;-87
2021/09/17 07:30:09;;;;;;;3.47;3.17;;;24.60;56.50;;;;;;6175263;22;20380;-87
2021/09/17 07:33:03;;;;;;;3.60;3.30;;;24.60;56.50;;;;;;6266051;22;20380;-87
2021/09/17 07:36:13;;;;;;;3.33;3.03;;;24.60;56.50;;;;;;6267558;22;20381;-87
2021/09/17 07:38:44;;;;;;;3.37;3.07;;;24.60;56.50;;;;;;6291493;22;20434;-87
2021/09/17 07:41:56;;;;;;;4.10;3.70;;;24.60;56.60;;;;;;6269930;22;20376;-87
2021/09/17 07:44:50;;;;;;;3.67;3.37;;;24.60;56.50;;;;;;6264417;22;20391;-88
2021/09/17 07:50:41;;;;;;;;;;;;;;;;;;;;;
2021/09/17 08:07:08;;;;;;;;;;;;;;;;;;;;;
2021/09/17 08:26:08;;;;;;;3.27;2.97;;;24.60;56.60;;;;;;5997201;24;20365;-87
2021/09/17 08:29:06;;;;;;;;;;;;;;;;;;;;;
2021/09/17 08:35:45;;;;;;;4.60;3.47;;;24.70;56.70;;;;;;5996074;24;20417;-87
2021/09/17 08:44:57;;;;;;;3.00;2.80;;;24.60;56.70;;;;;;6054910;23;20380;-86
2021/09/17 08:47:26;;;;;;;3.20;3.00;;;24.60;56.70;;;;;;6028993;23;20399;-86
2021/09/17 08:50:04;;;;;;;3.30;3.00;;;24.70;56.80;;;;;;6029261;23;20384;-86
2021/09/17 08:52:49;;;;;;;3.60;3.30;;;24.70;56.80;;;;;;6049241;23;20387;-87
2021/09/17 08:55:37;;;;;;;4.77;3.17;;;24.70;56.70;;;;;;6058970;23;20438;-86
2021/09/17 08:58:09;;;;;;;3.20;2.90;;;24.70;56.70;;;;;;6139484;23;20381;-87
2021/09/17 09:13:39;;;;;;;3.00;2.80;;;24.70;56.70;;;;;;6052418;23;20382;-87
2021/09/17 09:16:30;;;;;;;;;;;;;;;;;;;;;
2021/09/17 09:19:26;;;;;;;3.10;2.80;;;24.70;56.80;;;;;;6052020;23;20410;-87
2021/09/17 09:25:33;;;;;;;3.00;2.33;;;24.70;56.70;;;;;;6169971;23;20411;-87
2021/09/17 09:28:32;;;;;;;3.03;2.67;;;24.70;56.80;;;;;;6144255;23;20478;-87
2021/09/17 09:31:04;;;;;;;3.27;2.93;;;24.70;56.80;;;;;;6168953;23;20403;-87
2021/09/17 09:33:44;;;;;;;3.27;2.73;;;24.70;56.80;;;;;;6186140;23;20417;-87
2021/09/17 09:36:25;;;;;;;3.13;2.83;;;24.80;56.90;;;;;;6229640;23;20377;-87
2021/09/17 09:45:30;;;;;;;2.63;2.43;;;24.80;56.80;;;;;;6168916;23;20472;-86
2021/09/17 09:48:06;;;;;;;2.97;2.57;;;24.70;56.80;;;;;;6144189;23;20408;-88
2021/09/17 09:50:41;;;;;;;3.37;2.60;;;24.70;56.80;;;;;;6144577;23;20384;-87
2021/09/17 09:53:15;;;;;;;2.97;2.67;;;24.70;56.80;;;;;;6169620;23;20379;-87
2021/09/17 10:02:30;;;;;;;6.20;3.30;;;24.70;56.70;;;;;;6168953;23;20427;-87
2021/09/17 10:05:09;;;;;;;7.27;3.13;;;24.70;56.80;;;;;;6168738;23;20380;-87
2021/09/17 10:07:47;;;;;;;4.10;3.70;;;24.70;56.80;;;;;;6143941;23;20376;-87
2021/09/17 10:10:50;;;;;;;7.73;4.10;;;24.70;56.80;;;;;;6168463;23;20356;-87
2021/09/17 10:13:19;;;;;;;4.27;3.87;;;24.70;56.70;;;;;;6249491;23;20852;-86
2021/09/17 10:15:47;;;;;;;4.30;3.33;;;24.70;56.80;;;;;;6260061;23;20389;-87
2021/09/17 10:18:36;;;;;;;10.80;4.40;;;24.70;56.80;;;;;;6259337;23;20384;-87
2021/09/17 10:21:06;;;;;;;5.60;3.93;;;24.70;56.70;;;;;;6259031;23;20453;-87
2021/09/17 10:23:39;;;;;;;4.73;2.87;;;24.70;56.80;;;;;;6258556;23;20427;-87
2021/09/17 10:26:12;;;;;;;5.10;3.60;;;24.70;56.80;;;;;;6263365;22;20373;-87
2021/09/17 10:29:07;;;;;;;5.43;3.40;;;24.70;56.80;;;;;;6264555;22;20373;-86
2021/09/17 10:31:47;;;;;;;8.30;3.47;;;24.70;56.70;;;;;;6254756;22;20373;-86
2021/09/17 10:35:02;;;;;;;6.43;2.77;;;24.70;56.70;;;;;;6265840;22;20376;-86
2021/09/17 10:41:13;;;;;;;6.87;3.77;;;24.70;56.80;;;;;;6139439;23;20368;-87
2021/09/17 10:50:50;;;;;;;28.37;16.60;;;24.60;57.40;;;;;;6117265;23;20410;-87
2021/09/17 11:01:00;;;;;;;33.23;21.80;;;24.60;56.90;;;;;;6054001;23;20395;-86
2021/09/17 11:03:48;;;;;;;41.60;21.10;;;24.60;56.90;;;;;;6057389;23;20434;-86
2021/09/17 11:09:17;;;;;;;34.13;21.73;;;24.60;56.90;;;;;;6056235;23;20379;-86
2021/09/17 11:11:56;;;;;;;41.97;23.10;;;24.60;56.90;;;;;;6044969;23;20391;-87
2021/09/17 11:14:25;;;;;;;51.83;27.70;;;24.60;56.90;;;;;;6134634;23;20371;-86
2021/09/17 11:16:54;;;;;;;40.27;26.10;;;24.60;56.80;;;;;;6147593;23;20380;-87
2021/09/17 11:29:25;;;;;;;28.70;19.80;;;24.60;56.90;;;;;;6113256;23;20369;-87
2021/09/17 11:32:18;;;;;;;33.30;18.40;;;24.60;57.00;;;;;;6112225;23;20374;-86
2021/09/17 11:42:19;;;;;;;;;;;;;;;;;;;;;
2021/09/17 11:51:49;;;;;;;;;;;;;;;;;;;;;
2021/09/17 12:16:19;;;;;;;;;;;;;;;;;;;;;
2021/09/17 12:22:14;;;;;;;134.10;41.83;;;24.60;57.10;;;;;;6027392;23;20426;-87
2021/09/17 12:25:11;;;;;;;108.67;38.60;;;24.60;57.10;;;;;;6027410;23;20383;-87
2021/09/17 12:27:47;;;;;;;82.83;36.50;;;24.60;57.00;;;;;;6002939;23;20408;-88
2021/09/17 12:30:32;;;;;;;91.90;36.07;;;24.60;57.00;;;;;;6004661;23;20407;-88
2021/09/17 12:33:33;;;;;;;107.00;35.37;;;24.60;57.00;;;;;;6027575;23;20373;-88
2021/09/17 12:36:23;;;;;;;69.90;27.67;;;24.60;56.90;;;;;;6004160;23;20385;-87
2021/09/17 12:49:43;;;;;;;44.03;18.70;;;24.60;56.70;;;;;;6065932;23;20361;-87
2021/09/17 12:53:14;;;;;;;39.83;15.93;;;24.60;56.70;;;;;;6118598;23;20393;-87
2021/09/17 13:12:21;;;;;;;31.60;12.80;;;24.50;56.50;;;;;;6111165;23;20487;-87
2021/09/17 13:18:16;;;;;;;19.50;9.90;;;24.50;56.50;;;;;;6024564;23;20409;-92
2021/09/17 13:21:33;;;;;;;;;;;;;;;;;;;;;
2021/09/17 13:31:13;;;;;;;24.90;13.40;;;24.50;56.40;;;;;;5972013;23;20473;-87
2021/09/17 13:34:25;;;;;;;22.27;10.47;;;24.50;56.40;;;;;;5967995;24;20406;-85
2021/09/17 13:36:57;;;;;;;18.40;8.77;;;24.50;56.40;;;;;;5967250;24;20410;-86
2021/09/17 13:39:24;;;;;;;19.93;9.07;;;24.50;56.50;;;;;;5994433;23;20388;-85
2021/09/17 13:42:06;;;;;;;16.80;9.07;;;24.50;56.50;;;;;;6023594;23;20447;-85
2021/09/17 13:44:58;;;;;;;18.70;7.80;;;24.50;56.40;;;;;;6025715;23;20392;-87
2021/09/17 13:47:49;;;;;;;;;;;;;;;;;;;;;
2021/09/17 13:50:31;;;;;;;19.10;9.50;;;24.50;56.40;;;;;;6026701;23;20380;-85
2021/09/17 13:52:59;;;;;;;19.87;9.13;;;24.50;56.40;;;;;;6004293;23;20438;-86
2021/09/17 13:58:32;;;;;;;23.57;9.87;;;24.50;56.40;;;;;;6143361;23;20364;-85
2021/09/17 14:01:16;;;;;;;19.10;9.33;;;24.50;56.40;;;;;;6118168;23;20417;-85
2021/09/17 14:03:45;;;;;;;12.30;7.60;;;24.50;56.40;;;;;;6142200;23;20417;-85
2021/09/17 14:06:16;;;;;;;17.10;9.17;;;24.50;56.40;;;;;;6143856;23;20931;-84
2021/09/17 14:08:49;;;;;;;16.73;8.80;;;24.50;56.40;;;;;;6143941;23;20800;-85
2021/09/17 14:11:17;;;;;;;14.70;7.80;;;24.50;56.40;;;;;;6117851;23;20391;-86
2021/09/17 14:14:00;;;;;;;14.13;8.10;;;24.50;56.40;;;;;;6115379;23;20389;-86
2021/09/17 14:16:32;;;;;;;16.53;7.47;;;24.50;56.40;;;;;;6142747;23;20825;-86
2021/09/17 14:19:15;;;;;;;15.60;7.30;;;24.50;56.40;;;;;;6142754;23;20395;-86
2021/09/17 14:22:19;;;;;;;19.17;6.97;;;24.50;56.40;;;;;;6118622;23;20397;-87
2021/09/17 14:24:58;;;;;;;15.93;7.60;;;24.50;56.40;;;;;;6142921;23;20384;-86
2021/09/17 14:27:39;;;;;;;19.67;7.73;;;24.50;56.40;;;;;;6131600;23;20384;-86
2021/09/17 14:30:18;;;;;;;13.70;7.63;;;24.50;56.40;;;;;;6142310;23;20392;-86
2021/09/17 14:32:53;;;;;;;16.17;7.60;;;24.50;56.50;;;;;;6118226;23;20791;-86
2021/09/17 14:35:45;;;;;;;18.13;9.00;;;24.50;56.50;;;;;;6117785;23;20399;-86
2021/09/17 14:38:29;;;;;;;11.47;7.30;;;24.50;56.50;;;;;;6120122;23;20393;-86
2021/09/17 14:41:16;;;;;;;14.43;7.10;;;24.50;56.50;;;;;;6186915;22;20380;-86
2021/09/17 14:47:12;;;;;;;11.43;6.90;;;24.50;56.50;;;;;;6143461;23;20441;-86
2021/09/17 14:49:52;;;;;;;12.63;6.47;;;24.50;56.60;;;;;;6120508;23;20389;-86
2021/09/17 14:52:27;;;;;;;12.60;6.33;;;24.50;56.60;;;;;;6097269;23;20400;-86
2021/09/17 14:58:24;;;;;;;14.47;7.40;;;24.50;56.60;;;;;;6084792;23;20370;-86
2021/09/17 15:14:46;;;;;;;11.63;6.63;;;24.50;56.80;;;;;;5998978;23;20369;-86
2021/09/17 15:17:24;;;;;;;9.03;6.17;;;24.40;56.70;;;;;;6000095;23;20380;-84
2021/09/17 15:19:53;;;;;;;8.27;6.10;;;24.40;56.80;;;;;;6006318;23;20381;-86
2021/09/17 15:25:17;;;;;;;8.27;5.40;;;24.40;56.70;;;;;;6083440;23;20379;-86
2021/09/17 15:27:53;;;;;;;9.13;5.80;;;24.40;56.70;;;;;;6003222;23;20393;-87
2021/09/17 15:47:07;;;;;;;6.77;5.00;;;24.30;56.60;;;;;;5890200;24;20400;-86
2021/09/17 15:49:43;;;;;;;10.63;5.10;;;24.30;56.60;;;;;;5878407;24;20453;-86
2021/09/17 16:03:07;;;;;;;8.10;4.73;;;24.20;56.60;;;;;;5890027;24;20447;-87
2021/09/17 16:09:31;;;;;;;6.50;4.40;;;24.20;56.70;;;;;;5886813;24;20428;-86
2021/09/17 16:15:34;;;;;;;;;;;;;;;;;;;;;
2021/09/17 16:21:33;;;;;;;;;;;;;;;;;;;;;
2021/09/17 16:44:06;;;;;;;6.63;4.60;;;24.10;56.80;;;;;;6001458;23;20440;-85
2021/09/17 16:46:39;;;;;;;5.27;3.77;;;24.10;56.90;;;;;;6001635;24;20467;-85
2021/09/17 16:52:51;;;;;;;5.67;4.47;;;24.10;56.90;;;;;;5996915;24;20412;-86
2021/09/17 16:55:32;;;;;;;4.43;3.67;;;24.10;57.00;;;;;;6002247;24;20396;-85
2021/09/17 16:58:12;;;;;;;6.43;4.00;;;24.10;57.00;;;;;;6002528;24;20479;-85
2021/09/17 17:00:48;;;;;;;5.60;4.30;;;24.10;57.00;;;;;;5978696;24;20397;-84
2021/09/17 17:03:23;;;;;;;5.23;3.57;;;24.10;57.00;;;;;;6001694;24;20448;-85
2021/09/17 17:05:56;;;;;;;5.93;3.90;;;24.10;56.90;;;;;;6000094;24;20392;-85
2021/09/17 17:08:42;;;;;;;4.63;3.83;;;24.20;57.00;;;;;;6020555;23;20380;-85
2021/09/17 17:12:16;;;;;;;6.80;3.97;;;24.10;56.90;;;;;;6112737;23;20390;-84
2021/09/17 17:17:48;;;;;;;3.73;3.27;;;24.10;57.00;;;;;;6245273;23;20380;-86
2021/09/17 17:20:55;;;;;;;4.70;3.97;;;24.10;57.10;;;;;;6241590;23;20376;-85
2021/09/17 17:30:06;;;;;;;4.93;4.00;;;24.10;57.10;;;;;;6171855;23;20372;-86
2021/09/17 17:32:40;;;;;;;6.47;3.77;;;24.00;57.10;;;;;;6152131;23;20396;-87
2021/09/17 17:35:10;;;;;;;4.13;3.73;;;24.00;57.10;;;;;;6172669;23;20384;-87
2021/09/17 17:38:00;;;;;;;4.40;4.00;;;24.10;57.20;;;;;;6173220;23;20396;-86
2021/09/17 17:40:29;;;;;;;3.70;3.37;;;24.10;57.10;;;;;;6061051;23;20379;-87
2021/09/17 17:43:04;;;;;;;4.83;4.33;;;24.10;57.20;;;;;;6062238;23;20410;-87
2021/09/17 17:45:48;;;;;;;3.60;3.20;;;24.10;57.20;;;;;;6059321;23;20861;-86
2021/09/17 17:55:08;;;;;;;8.43;3.43;;;24.10;57.20;;;;;;5995559;23;20395;-86
2021/09/17 17:57:48;;;;;;;;;;;;;;;;;;;;;
2021/09/17 18:00:45;;;;;;;4.40;3.30;;;24.00;57.30;;;;;;5999972;24;20358;-86
2021/09/17 18:03:17;;;;;;;4.20;3.80;;;24.10;57.40;;;;;;6013935;23;20433;-87
2021/09/17 18:06:10;;;;;;;4.00;3.60;;;24.10;57.50;;;;;;6004129;23;20458;-87
2021/09/17 18:08:40;;;;;;;5.30;4.37;;;24.00;57.40;;;;;;6022939;23;20396;-87
2021/09/17 18:11:27;;;;;;;3.43;3.13;;;24.00;57.40;;;;;;6023224;23;20828;-87
2021/09/17 18:14:07;;;;;;;5.90;4.50;;;24.00;57.40;;;;;;6001650;23;20481;-86
2021/09/17 18:17:03;;;;;;;;;;;;;;;;;;;;;
2021/09/17 18:19:30;;;;;;;4.40;3.63;;;24.10;57.50;;;;;;6168081;23;20410;-86
2021/09/17 18:21:56;;;;;;;3.53;3.23;;;24.00;57.50;;;;;;6143945;23;20384;-86
2021/09/17 18:24:27;;;;;;;4.60;3.80;;;24.00;57.50;;;;;;6144082;23;20384;-86
2021/09/17 18:26:55;;;;;;;3.90;3.20;;;24.00;57.50;;;;;;6148439;23;20396;-86
2021/09/17 18:29:44;;;;;;;5.63;3.63;;;24.00;57.50;;;;;;6238310;23;20377;-87
2021/09/17 18:32:32;;;;;;;4.07;3.40;;;24.10;57.60;;;;;;6206536;23;20393;-86
2021/09/17 18:35:01;;;;;;;4.10;3.37;;;24.10;57.60;;;;;;6238978;23;20679;-87
2021/09/17 18:45:28;;;;;;;5.60;3.07;;;24.00;57.60;;;;;;6108545;23;20503;-87
2021/09/17 19:14:07;;;;;;;4.10;3.50;;;23.90;57.80;;;;;;6116171;23;20381;-87
2021/09/17 19:16:37;;;;;;;3.80;3.00;;;23.90;57.80;;;;;;6144731;23;20458;-88
2021/09/17 19:19:25;;;;;;;4.23;2.80;;;23.90;57.80;;;;;;6177855;23;20375;-87
2021/09/17 19:22:02;;;;;;;4.37;3.23;;;24.00;57.90;;;;;;6203321;23;20383;-85
2021/09/17 19:27:56;;;;;;;;;;;;;;;;;;;;;
2021/09/17 19:31:00;;;;;;;;;;;;;;;;;;;;;
2021/09/17 19:40:47;;;;;;;3.60;3.07;;;24.00;57.90;;;;;;6294894;22;20371;-87
2021/09/17 19:44:01;;;;;;;4.00;3.23;;;23.90;57.90;;;;;;6247118;22;20428;-85
2021/09/17 19:53:37;;;;;;;;;;;;;;;;;;;;;
2021/09/17 19:56:14;;;;;;;4.00;3.57;;;23.90;58.00;;;;;;6052874;23;20407;-86
2021/09/17 20:02:42;;;;;;;4.03;3.63;;;23.90;57.90;;;;;;6025573;23;20427;-86
2021/09/17 20:08:33;;;;;;;4.00;3.30;;;23.90;57.80;;;;;;5926899;24;20740;-87
2021/09/17 20:12:03;;;;;;;3.77;3.47;;;23.90;57.80;;;;;;5944816;24;20390;-94
2021/09/17 20:14:34;;;;;;;4.50;3.47;;;24.00;57.70;;;;;;5946028;24;20375;-87
2021/09/17 20:24:02;;;;;;;4.00;2.90;;;24.00;57.60;;;;;;5891475;24;20440;-85
2021/09/17 20:36:49;;;;;;;3.87;3.20;;;24.00;57.60;;;;;;6117575;23;20388;-86
2021/09/17 20:39:35;;;;;;;;;;;;;;;;;;;;;
2021/09/17 20:42:04;;;;;;;4.70;3.40;;;24.00;57.60;;;;;;6097875;23;20896;-86
2021/09/17 20:44:41;;;;;;;4.20;3.73;;;24.10;57.70;;;;;;6176252;23;20383;-86
2021/09/17 20:47:16;;;;;;;4.20;3.37;;;24.10;57.60;;;;;;6200538;23;20387;-86
2021/09/17 20:49:57;;;;;;;5.80;3.70;;;24.10;57.60;;;;;;6201814;23;20382;-85
2021/09/17 20:52:30;;;;;;;4.77;3.93;;;24.20;57.60;;;;;;6201499;23;20391;-85
2021/09/17 21:01:55;;;;;;;4.00;3.53;;;24.10;57.50;;;;;;6264253;23;20353;-86
2021/09/17 21:04:31;;;;;;;4.87;3.47;;;24.10;57.50;;;;;;6235992;23;20365;-87
2021/09/17 21:07:52;;;;;;;3.63;3.17;;;24.10;57.50;;;;;;6234971;23;20415;-87
2021/09/17 21:10:52;;;;;;;5.80;3.90;;;24.10;57.50;;;;;;6233716;23;20437;-87
2021/09/17 21:20:09;;;;;;;5.50;4.07;;;24.10;57.50;;;;;;6261108;23;20391;-87
2021/09/17 21:23:10;;;;;;;4.70;4.20;;;24.10;57.60;;;;;;6216213;23;20484;-87
2021/09/17 21:35:48;;;;;;;5.70;4.40;;;24.10;57.60;;;;;;6208212;23;20380;-87
2021/09/17 21:38:14;;;;;;;5.67;4.03;;;24.10;57.60;;;;;;6233411;23;20401;-86
2021/09/17 21:40:41;;;;;;;7.90;5.63;;;24.10;57.60;;;;;;6260756;23;20378;-87
2021/09/17 21:43:17;;;;;;;;;;;;;;;;;;;;;
2021/09/17 21:45:49;;;;;;;4.70;3.70;;;24.10;57.60;;;;;;6207580;23;20388;-87
2021/09/17 21:48:29;;;;;;;5.10;4.10;;;24.10;57.50;;;;;;6209322;23;20377;-87
2021/09/17 21:51:09;;;;;;;6.70;4.63;;;24.10;57.50;;;;;;6208417;23;20381;-87
2021/09/17 21:53:52;;;;;;;3.80;3.30;;;24.10;57.50;;;;;;6232961;23;20389;-87
2021/09/17 21:56:23;;;;;;;5.87;3.67;;;24.20;57.60;;;;;;6234421;23;20369;-87
2021/09/17 22:02:15;;;;;;;6.20;4.23;;;24.20;57.50;;;;;;6198711;23;20442;-88
2021/09/17 22:05:11;;;;;;;6.40;4.40;;;24.10;57.50;;;;;;6173982;23;20406;-87
2021/09/17 22:07:40;;;;;;;4.90;3.77;;;24.10;57.50;;;;;;6198519;23;20378;-87
2021/09/17 22:10:21;;;;;;;6.53;4.00;;;24.10;57.50;;;;;;6172519;23;20897;-87
2021/09/17 22:19:38;;;;;;;5.13;4.43;;;24.10;57.40;;;;;;6147964;23;20405;-87
2021/09/17 22:22:07;;;;;;;5.90;4.87;;;24.10;57.50;;;;;;6199658;23;20394;-87
2021/09/17 22:24:42;;;;;;;6.40;4.83;;;24.10;57.50;;;;;;6259875;23;20382;-87
2021/09/17 22:27:08;;;;;;;5.73;5.10;;;24.20;57.50;;;;;;6236400;23;20376;-87
2021/09/17 22:29:37;;;;;;;4.20;3.80;;;24.20;57.50;;;;;;6235704;23;20382;-87
2021/09/17 22:32:06;;;;;;;4.00;3.60;;;24.20;57.40;;;;;;6261378;23;20139;-86
2021/09/17 22:34:32;;;;;;;4.00;3.60;;;24.20;57.40;;;;;;6236210;23;20382;-86
2021/09/17 22:36:59;;;;;;;4.13;3.50;;;24.30;57.40;;;;;;6235409;23;20416;-86
2021/09/17 22:39:29;;;;;;;4.30;3.90;;;24.30;57.40;;;;;;6239633;23;20383;-86
2021/09/17 22:41:58;;;;;;;4.77;3.90;;;24.30;57.30;;;;;;6238632;23;20373;-85
2021/09/17 22:44:24;;;;;;;4.47;4.07;;;24.30;57.30;;;;;;6239311;23;20381;-86
2021/09/17 22:46:53;;;;;;;4.50;3.80;;;24.30;57.30;;;;;;6265928;23;20365;-86
2021/09/17 22:49:19;;;;;;;4.47;4.07;;;24.30;57.30;;;;;;6209926;23;20382;-86
2021/09/17 22:51:48;;;;;;;4.60;4.10;;;24.30;57.80;;;;;;6261622;23;20399;-86
2021/09/17 22:54:16;;;;;;;4.50;3.50;;;24.40;57.30;;;;;;6261555;23;20216;-86
2021/09/17 22:56:42;;;;;;;4.10;3.40;;;24.40;57.30;;;;;;6233923;23;20382;-86
2021/09/17 22:59:08;;;;;;;5.70;3.93;;;24.40;57.30;;;;;;6261252;23;20741;-86
2021/09/17 23:01:44;;;;;;;6.37;3.70;;;24.40;57.30;;;;;;6261730;23;20397;-86
2021/09/17 23:04:16;;;;;;;7.70;3.97;;;24.40;57.20;;;;;;6235130;23;20568;-86
2021/09/17 23:06:42;;;;;;;4.40;3.00;;;24.40;57.20;;;;;;6261748;23;20349;-86
2021/09/17 23:09:07;;;;;;;3.60;3.30;;;24.40;57.20;;;;;;6234143;23;20448;-87
2021/09/17 23:11:33;;;;;;;4.83;4.00;;;24.40;57.20;;;;;;6234705;23;20966;-86
2021/09/17 23:14:02;;;;;;;5.00;3.83;;;24.40;57.20;;;;;;6234591;23;20177;-86
2021/09/17 23:16:28;;;;;;;4.67;4.27;;;24.40;57.20;;;;;;6261664;23;20370;-86
2021/09/17 23:18:53;;;;;;;4.73;4.00;;;24.40;57.20;;;;;;6234257;23;20412;-85
2021/09/17 23:21:19;;;;;;;4.37;3.97;;;24.40;57.20;;;;;;6234988;23;20251;-86
2021/09/17 23:23:45;;;;;;;4.10;3.70;;;24.40;57.10;;;;;;6261891;23;20170;-86
2021/09/17 23:26:14;;;;;;;4.53;4.13;;;24.40;57.10;;;;;;6234170;23;20154;-86
2021/09/17 23:28:48;;;;;;;4.60;4.20;;;24.40;57.10;;;;;;6261130;23;20257;-86
2021/09/17 23:31:14;;;;;;;6.00;4.00;;;24.40;57.10;;;;;;6234533;23;20800;-86
2021/09/17 23:33:40;;;;;;;4.40;3.90;;;24.40;57.10;;;;;;6235363;23;20385;-86
2021/09/17 23:36:09;;;;;;;3.90;3.33;;;24.40;57.10;;;;;;6234742;23;20611;-86
2021/09/17 23:38:35;;;;;;;4.53;3.50;;;24.40;57.10;;;;;;6234437;23;20154;-86
2021/09/17 23:41:04;;;;;;;5.27;4.23;;;24.40;57.10;;;;;;6262129;23;20392;-86
2021/09/17 23:43:36;;;;;;;4.60;4.20;;;24.40;57.10;;;;;;6209980;23;20201;-86
2021/09/17 23:46:02;;;;;;;4.43;4.03;;;24.40;57.60;;;;;;6234721;23;20381;-86
2021/09/17 23:48:28;;;;;;;4.30;3.90;;;24.40;57.00;;;;;;6261133;23;20419;-86
2021/09/17 23:50:59;;;;;;;5.23;4.60;;;24.40;57.00;;;;;;6234740;23;20607;-86
2021/09/17 23:53:25;;;;;;;4.70;4.30;;;24.40;57.00;;;;;;6238198;23;20377;-86
2021/09/17 23:55:54;;;;;;;4.87;4.03;;;24.40;57.00;;;;;;6239261;23;20396;-85
2021/09/17 23:58:22;;;;;;;5.13;4.63;;;24.40;57.00;;;;;;6239362;23;20180;-85
